Main page
METAR-TAF:

METAR-TAF

Airports :

Funchal, Madeira, Portugal

Madeira Airport

latitude: 32-41-52N, longitude: 016-46-28W, elevation: 59 m

Current weather observation

The report was made 37 minutes ago, at 16:30 UTC
Wind 18 kt from the Northeast
Temperature 24°C
Humidity 69%
Pressure 1020 hPa
Visibility 10 km or more
Few clouds at a height of 1500 ft

METAR: LPMA 231630Z 04018KT 9999 FEW015 24/18 Q1020

Time: 18:07 (17:07 UTC)

Forecast

The report was made 6 hours and 7 minutes ago, at 11:00 UTC
Forecast valid from 23 at 12 UTC to 24 at 12 UTC
Wind 15 kt from the North/Northeast
Visibility 10 km or more
Scattered clouds at a height of 1500 ft
Probability 30% :
Temporary
from 23 at 12 UTC to 23 at 18 UTC
Wind 20 kt from the Northeast with gusts up to 30 kt
Becoming
from 23 at 17 UTC to 23 at 20 UTC
Wind 15 kt from the North

TAF: LPMA 231100Z 2312/2412 03015KT 9999 SCT015 PROB30 TEMPO 2312/2318 04020G30KT BECMG 2317/2320 36015KT

Weather observations and forecasts of more than 4000 airports (METAR and TAF reports).

The available stations are represented by yellow and red dots on the map.

Hover mouse over dot to see the name of the station.

Then click to see weather observations and forecasts.

To change the map : click on the green buttons with a black cross to zoom in, on the green button with a dash to zoom out, or on the green arrows for adjacent maps.


METAR-TAF: